createdAt,value
2022-12-01T06:47:17.943Z,17.77
2022-12-01T06:48:49.372Z,18.07
2022-12-01T06:50:20.822Z,18.37
2022-12-01T06:51:52.216Z,18.65
2022-12-01T06:53:23.602Z,18.90
2022-12-01T06:54:54.993Z,19.13
2022-12-01T06:56:26.624Z,19.31
2022-12-01T06:58:01.030Z,19.48
2022-12-01T06:59:32.765Z,19.63
2022-12-01T07:01:22.357Z,19.77
2022-12-01T07:02:53.844Z,19.93
2022-12-01T07:04:25.301Z,20.02
2022-12-01T07:05:57.350Z,20.12
2022-12-01T07:07:28.792Z,20.21
2022-12-01T07:09:00.205Z,20.30
2022-12-01T07:10:31.598Z,20.39
2022-12-01T07:12:03.090Z,20.45
2022-12-01T07:13:34.627Z,20.52
2022-12-01T07:15:06.536Z,20.57
2022-12-01T07:16:37.984Z,20.62
2022-12-01T07:18:09.429Z,20.67
2022-12-01T07:19:40.876Z,20.72
2022-12-01T07:21:12.627Z,20.76
2022-12-01T07:22:44.045Z,20.79
2022-12-01T07:24:15.447Z,20.83
2022-12-01T07:25:46.900Z,20.86
2022-12-01T07:27:18.356Z,20.89
2022-12-01T07:28:49.758Z,20.92
2022-12-01T07:30:25.402Z,20.94
2022-12-01T07:31:59.570Z,20.96
2022-12-01T07:33:31.009Z,20.97
2022-12-01T07:35:02.403Z,21.00
2022-12-01T07:36:33.813Z,21.02
2022-12-01T07:38:05.211Z,21.04
2022-12-01T07:39:36.617Z,21.06
2022-12-01T07:41:11.462Z,21.07
2022-12-01T07:42:42.860Z,21.09
2022-12-01T07:44:14.252Z,21.10
2022-12-01T07:45:45.674Z,21.12
2022-12-01T07:47:17.108Z,21.13
2022-12-01T07:48:48.585Z,21.15
2022-12-01T07:50:20.123Z,21.16
2022-12-01T07:51:51.703Z,21.18
2022-12-01T07:53:23.508Z,21.19
2022-12-01T07:54:54.954Z,21.20
2022-12-01T07:56:26.412Z,21.21
2022-12-01T07:58:02.140Z,21.21
2022-12-01T07:59:33.532Z,21.22
2022-12-01T08:01:12.199Z,21.22
2022-12-01T08:02:43.689Z,21.24
2022-12-01T08:04:15.175Z,21.25
2022-12-01T08:05:55.239Z,21.24
2022-12-01T08:07:29.893Z,21.25
2022-12-01T08:09:01.507Z,21.25
2022-12-01T08:10:33.062Z,21.26
2022-12-01T08:12:04.595Z,21.27
2022-12-01T08:13:35.984Z,21.26
2022-12-01T08:15:07.516Z,21.27
2022-12-01T08:16:38.914Z,21.27
2022-12-01T08:18:10.416Z,21.27
2022-12-01T08:19:41.827Z,21.28
2022-12-01T08:21:13.921Z,21.29
2022-12-01T08:22:45.329Z,21.29
2022-12-01T08:24:16.729Z,21.29
2022-12-01T08:25:48.136Z,21.31
2022-12-01T08:27:19.532Z,21.31
2022-12-01T08:28:50.925Z,21.32
2022-12-01T08:30:22.437Z,21.32
2022-12-01T08:31:53.824Z,21.32
2022-12-01T08:33:25.230Z,21.34
2022-12-01T08:34:56.621Z,21.34
2022-12-01T08:36:28.031Z,21.29
2022-12-01T08:37:59.451Z,21.34
2022-12-01T08:39:30.844Z,21.35
2022-12-01T08:41:02.702Z,21.36
2022-12-01T08:42:34.093Z,21.37
2022-12-01T08:44:05.501Z,21.36
2022-12-01T08:45:36.904Z,21.37
2022-12-01T08:47:08.337Z,21.38
2022-12-01T08:48:39.896Z,21.40
2022-12-01T08:50:11.511Z,21.40
2022-12-01T08:51:42.923Z,21.41
2022-12-01T08:53:14.299Z,21.41
2022-12-01T08:54:45.804Z,21.42
2022-12-01T08:56:21.453Z,21.43
2022-12-01T08:57:52.856Z,21.42
2022-12-01T08:59:24.406Z,21.44
2022-12-01T09:01:05.691Z,21.44
2022-12-01T09:02:37.120Z,21.46
2022-12-01T09:04:09.074Z,21.45
2022-12-01T09:05:40.636Z,21.46
2022-12-01T09:07:12.045Z,21.46
2022-12-01T09:08:43.577Z,21.46
2022-12-01T09:10:15.107Z,21.46
2022-12-01T09:11:46.568Z,21.48
2022-12-01T09:13:17.992Z,21.47
2022-12-01T09:14:49.411Z,21.48
2022-12-01T09:16:20.895Z,21.48
2022-12-01T09:17:52.380Z,21.49
2022-12-01T09:19:25.180Z,21.49
2022-12-01T09:20:56.989Z,21.49
2022-12-01T09:22:28.383Z,21.49
2022-12-01T09:24:00.097Z,21.49
2022-12-01T09:25:31.502Z,21.48
2022-12-01T09:27:03.060Z,21.47
2022-12-01T09:28:34.796Z,21.47
2022-12-01T09:30:06.471Z,21.47
2022-12-01T09:31:38.009Z,21.47
2022-12-01T09:33:09.500Z,21.44
2022-12-01T09:34:40.920Z,21.47
2022-12-01T09:36:12.397Z,21.47
2022-12-01T09:37:43.783Z,21.47
2022-12-01T09:39:18.889Z,21.47
2022-12-01T09:40:50.329Z,21.48
2022-12-01T09:42:21.739Z,21.48
2022-12-01T09:43:55.899Z,21.49
2022-12-01T09:45:28.429Z,21.50
2022-12-01T09:46:59.895Z,21.49
2022-12-01T09:48:32.536Z,21.50
2022-12-01T09:50:05.419Z,21.50
2022-12-01T09:51:36.831Z,21.49
2022-12-01T09:53:08.477Z,21.50
2022-12-01T09:54:39.874Z,21.50
2022-12-01T09:56:16.422Z,21.50
2022-12-01T09:57:48.346Z,21.50
2022-12-01T09:59:20.696Z,21.51
2022-12-01T10:00:52.156Z,21.51
2022-12-01T10:02:43.188Z,21.51
2022-12-01T10:04:19.722Z,21.49
2022-12-01T10:06:26.004Z,21.48
2022-12-01T10:08:00.184Z,21.47
2022-12-01T10:09:46.160Z,21.47
2022-12-01T10:11:36.657Z,21.48
2022-12-01T10:13:21.149Z,21.48
2022-12-01T10:14:52.604Z,21.49
2022-12-01T10:16:25.774Z,21.50
2022-12-01T10:17:57.199Z,21.51
2022-12-01T10:19:35.026Z,21.51
2022-12-01T10:21:06.517Z,21.52
2022-12-01T10:22:37.919Z,21.52
2022-12-01T10:24:28.098Z,21.51
2022-12-01T10:26:17.861Z,21.51
2022-12-01T10:27:56.338Z,21.53
2022-12-01T10:29:37.991Z,21.52
2022-12-01T10:31:26.331Z,21.53
2022-12-01T10:33:07.810Z,21.50
2022-12-01T10:34:39.892Z,21.51
2022-12-01T10:36:11.358Z,21.50
2022-12-01T10:37:42.851Z,21.50
2022-12-01T10:39:18.158Z,21.51
2022-12-01T10:40:49.620Z,21.51
2022-12-01T10:42:21.080Z,21.53
2022-12-01T10:43:53.985Z,21.52
2022-12-01T10:45:26.451Z,21.51
2022-12-01T10:46:58.201Z,21.53
2022-12-01T10:48:29.628Z,21.53
2022-12-01T10:50:01.086Z,21.54
2022-12-01T10:51:32.551Z,21.56
2022-12-01T10:53:04.060Z,21.55
2022-12-01T10:54:36.653Z,21.55
2022-12-01T10:56:14.182Z,21.56
2022-12-01T10:57:45.613Z,21.57
2022-12-01T10:59:23.125Z,21.58
2022-12-01T11:01:04.666Z,21.58
2022-12-01T11:02:36.292Z,21.60
2022-12-01T11:04:08.853Z,21.60
2022-12-01T11:05:40.811Z,21.61
2022-12-01T11:07:16.153Z,21.61
2022-12-01T11:08:50.947Z,21.62
2022-12-01T11:10:23.312Z,21.61
2022-12-01T11:12:03.710Z,21.63
2022-12-01T11:13:35.463Z,21.63
2022-12-01T11:15:07.002Z,21.63
2022-12-01T11:16:40.260Z,21.63
2022-12-01T11:18:20.413Z,21.64
2022-12-01T11:19:52.235Z,21.64
2022-12-01T11:21:27.166Z,21.63
2022-12-01T11:23:17.353Z,21.64
2022-12-01T11:25:04.563Z,21.64
2022-12-01T11:26:35.957Z,21.65
2022-12-01T11:28:07.389Z,21.65
2022-12-01T11:29:38.855Z,21.66
2022-12-01T11:31:10.349Z,21.65
2022-12-01T11:32:41.752Z,21.65
2022-12-01T11:34:18.905Z,21.66
2022-12-01T11:35:50.394Z,21.65
2022-12-01T11:37:22.288Z,21.66
2022-12-01T11:38:57.712Z,21.66
2022-12-01T11:40:29.962Z,21.67
2022-12-01T11:42:14.321Z,21.68
2022-12-01T11:43:50.538Z,21.68
2022-12-01T11:45:29.970Z,21.69
2022-12-01T11:47:22.783Z,21.68
2022-12-01T11:48:58.563Z,21.68
2022-12-01T11:50:31.017Z,21.68
2022-12-01T11:52:16.244Z,21.68
2022-12-01T11:53:47.698Z,21.69
2022-12-01T11:55:19.083Z,21.69
2022-12-01T11:57:17.462Z,21.68
2022-12-01T11:58:42.938Z,21.68
2022-12-01T12:00:15.239Z,21.68
2022-12-01T12:01:49.697Z,21.69
2022-12-01T12:03:24.194Z,21.69
2022-12-01T12:05:04.101Z,21.70
2022-12-01T12:06:55.759Z,21.71
2022-12-01T12:08:39.179Z,21.71
2022-12-01T12:10:10.618Z,21.72
2022-12-01T12:11:45.688Z,21.73
2022-12-01T12:13:20.088Z,21.74
2022-12-01T12:15:01.505Z,21.73
2022-12-01T12:16:51.411Z,21.72
2022-12-01T12:18:22.805Z,21.72
2022-12-01T12:20:13.172Z,21.72
2022-12-01T12:21:48.031Z,21.71
2022-12-01T12:23:31.524Z,21.72
2022-12-01T12:25:10.589Z,21.72
2022-12-01T12:26:43.828Z,21.73
2022-12-01T12:28:38.459Z,21.73
2022-12-01T12:30:19.376Z,21.74
2022-12-01T12:32:04.782Z,21.72
2022-12-01T12:33:54.814Z,21.73
2022-12-01T12:35:35.604Z,21.72
2022-12-01T12:37:19.000Z,21.72
2022-12-01T12:39:13.556Z,21.73
2022-12-01T12:40:47.759Z,21.73
2022-12-01T12:42:45.562Z,21.73
2022-12-01T12:44:37.924Z,21.73
2022-12-01T12:46:17.707Z,21.73
2022-12-01T12:47:51.803Z,21.73
2022-12-01T12:49:29.198Z,21.73
2022-12-01T12:51:05.447Z,21.72
2022-12-01T12:52:43.960Z,21.72
2022-12-01T12:54:17.535Z,21.72
2022-12-01T12:55:49.930Z,21.72
2022-12-01T12:57:21.360Z,21.72
2022-12-01T12:58:52.769Z,21.71
2022-12-01T13:00:28.229Z,21.71
2022-12-01T13:02:02.670Z,21.70
2022-12-01T13:03:38.835Z,21.70
2022-12-01T13:05:16.374Z,21.70
2022-12-01T13:07:00.712Z,21.69
2022-12-01T13:08:36.805Z,21.69
2022-12-01T13:10:28.546Z,21.68
2022-12-01T13:12:09.912Z,21.69
2022-12-01T13:13:50.286Z,21.69
2022-12-01T13:15:21.685Z,21.68
2022-12-01T13:16:53.384Z,21.69
2022-12-01T13:18:26.403Z,21.70
2022-12-01T13:19:57.831Z,21.69
2022-12-01T13:21:33.997Z,21.67
2022-12-01T13:23:05.420Z,21.67
2022-12-01T13:24:36.830Z,21.65
2022-12-01T13:26:08.381Z,21.64
2022-12-01T13:27:40.998Z,21.63
2022-12-01T13:29:14.331Z,21.61
2022-12-01T13:31:18.689Z,21.60
2022-12-01T13:32:50.156Z,21.58
2022-12-01T13:34:27.277Z,21.56
2022-12-01T13:36:23.065Z,21.52
2022-12-01T13:37:50.706Z,21.51
2022-12-01T13:39:23.269Z,21.48
2022-12-01T13:41:09.963Z,21.47
2022-12-01T13:42:41.339Z,21.45
2022-12-01T13:44:22.077Z,21.45
2022-12-01T13:45:53.456Z,21.42
2022-12-01T13:47:24.857Z,21.40
2022-12-01T13:48:56.985Z,21.39
2022-12-01T13:50:43.568Z,21.38
2022-12-01T13:52:21.126Z,21.36
2022-12-01T13:54:02.511Z,21.34
2022-12-01T13:55:33.972Z,21.31
2022-12-01T13:57:05.745Z,21.30
2022-12-01T13:58:41.378Z,21.29
2022-12-01T14:00:32.402Z,21.28
2022-12-01T14:02:12.657Z,21.26
2022-12-01T14:03:51.641Z,21.25
2022-12-01T14:05:23.046Z,21.23
2022-12-01T14:07:12.624Z,21.22
2022-12-01T14:08:56.305Z,21.20
2022-12-01T14:10:30.954Z,21.19
2022-12-01T14:12:22.684Z,21.17
2022-12-01T14:14:03.910Z,21.16
2022-12-01T14:15:38.822Z,21.15
2022-12-01T14:17:39.688Z,21.13
2022-12-01T14:19:25.417Z,21.13
2022-12-01T14:20:56.822Z,21.12
2022-12-01T14:22:40.971Z,21.09
2022-12-01T14:24:19.878Z,21.08
2022-12-01T14:26:09.936Z,21.07
2022-12-01T14:27:42.225Z,21.05
2022-12-01T14:29:26.681Z,21.04
2022-12-01T14:31:00.021Z,21.01
2022-12-01T14:32:31.470Z,21.01
2022-12-01T14:34:28.905Z,21.01
2022-12-01T14:36:00.350Z,21.00
2022-12-01T14:37:33.573Z,20.99
2022-12-01T14:39:20.121Z,20.96
2022-12-01T14:40:51.757Z,20.95
2022-12-01T14:42:23.154Z,20.96
2022-12-01T14:44:02.469Z,20.94
2022-12-01T14:45:35.516Z,20.93
2022-12-01T14:47:06.933Z,20.93
2022-12-01T14:48:41.170Z,20.93
2022-12-01T14:50:15.479Z,20.91
2022-12-01T14:51:47.339Z,20.91
2022-12-01T14:53:18.760Z,20.90
2022-12-01T14:54:50.466Z,20.89
2022-12-01T14:56:22.200Z,20.87
2022-12-01T14:58:00.412Z,20.87
2022-12-01T14:59:31.786Z,20.86
2022-12-01T15:01:03.243Z,20.85
2022-12-01T15:02:34.822Z,20.84
2022-12-01T15:04:06.294Z,20.83
2022-12-01T15:05:38.533Z,20.83
2022-12-01T15:07:09.935Z,20.83
2022-12-01T15:08:49.205Z,20.82
2022-12-01T15:10:26.033Z,20.81
2022-12-01T15:12:01.218Z,20.82
2022-12-01T15:13:38.860Z,20.80
2022-12-01T15:15:23.911Z,20.80
2022-12-01T15:16:55.742Z,20.79
2022-12-01T15:18:34.219Z,20.78
2022-12-01T15:20:24.248Z,20.78
2022-12-01T15:21:55.745Z,20.78
2022-12-01T15:23:28.438Z,20.77
2022-12-01T15:25:06.845Z,20.76
2022-12-01T15:26:45.712Z,20.75
2022-12-01T15:28:18.346Z,20.75
2022-12-01T15:29:50.108Z,20.74
2022-12-01T15:31:21.663Z,20.73
2022-12-01T15:32:53.088Z,20.73
2022-12-01T15:34:25.608Z,20.73
2022-12-01T15:35:57.197Z,20.73
2022-12-01T15:37:28.681Z,20.73
2022-12-01T15:39:06.622Z,20.75
2022-12-01T15:42:29.950Z,20.79
2022-12-01T15:44:04.433Z,20.81
2022-12-01T15:45:42.578Z,20.83
2022-12-01T15:47:29.797Z,20.84
2022-12-01T15:49:07.923Z,20.86
2022-12-01T15:50:45.980Z,20.88
2022-12-01T15:52:17.962Z,20.90
2022-12-01T15:53:50.704Z,20.92
2022-12-01T15:55:30.133Z,20.94
2022-12-01T15:57:01.611Z,20.95
2022-12-01T15:58:33.821Z,20.96
2022-12-01T16:00:05.640Z,20.99
2022-12-01T16:01:44.928Z,21.00
2022-12-01T16:03:16.424Z,21.02
2022-12-01T16:04:48.472Z,21.04
2022-12-01T16:06:20.759Z,21.06
2022-12-01T16:09:54.906Z,21.09
2022-12-01T16:11:26.728Z,21.12
2022-12-01T16:13:16.789Z,21.14
2022-12-01T16:14:49.350Z,21.16
2022-12-01T16:16:36.099Z,21.18
2022-12-01T16:18:20.343Z,21.19
2022-12-01T16:20:10.637Z,21.21
2022-12-01T16:21:51.596Z,21.21
2022-12-01T16:23:23.713Z,21.23
2022-12-01T16:24:55.162Z,21.24
2022-12-01T16:26:26.910Z,21.26
2022-12-01T16:27:59.709Z,21.27
2022-12-01T16:29:32.877Z,21.28
2022-12-01T16:31:05.585Z,21.29
2022-12-01T16:32:38.011Z,21.30
2022-12-01T16:34:37.967Z,21.31
2022-12-01T16:36:07.155Z,21.33
2022-12-01T16:37:38.687Z,21.34
2022-12-01T16:39:10.276Z,21.34
2022-12-01T16:40:42.400Z,21.34
2022-12-01T16:42:14.462Z,21.35
2022-12-01T16:44:05.422Z,21.35
2022-12-01T16:45:37.737Z,21.36
2022-12-01T16:47:12.032Z,21.37
2022-12-01T16:48:43.936Z,21.38
2022-12-01T16:50:16.500Z,21.39
2022-12-01T16:51:55.785Z,21.39
2022-12-01T16:53:28.180Z,21.41
2022-12-01T16:54:59.992Z,21.41
2022-12-01T16:56:31.636Z,21.41
2022-12-01T16:58:03.486Z,21.43
2022-12-01T16:59:35.148Z,21.42
2022-12-01T17:01:06.782Z,21.42
2022-12-01T17:02:40.131Z,21.42
2022-12-01T17:04:11.931Z,21.44
2022-12-01T17:05:43.726Z,21.42
2022-12-01T17:07:15.262Z,21.43
2022-12-01T17:08:48.619Z,21.41
2022-12-01T17:10:20.667Z,21.42
2022-12-01T17:11:52.426Z,21.40
2022-12-01T17:13:24.001Z,21.41
2022-12-01T17:14:55.817Z,21.40
2022-12-01T17:16:27.348Z,21.41
2022-12-01T17:17:58.882Z,21.40
2022-12-01T17:19:30.264Z,21.40
2022-12-01T17:21:04.438Z,21.40
2022-12-01T17:22:36.243Z,21.40
2022-12-01T17:24:07.899Z,21.40
2022-12-01T17:25:42.778Z,21.40
2022-12-01T17:27:14.279Z,21.41
2022-12-01T17:28:45.803Z,21.43
2022-12-01T17:30:17.504Z,21.42
2022-12-01T17:31:49.072Z,21.40
2022-12-01T17:33:20.620Z,21.39
2022-12-01T17:34:52.590Z,21.37
2022-12-01T17:36:24.424Z,21.37
2022-12-01T17:37:55.829Z,21.35
2022-12-01T17:39:27.432Z,21.34
2022-12-01T17:41:03.230Z,21.32
2022-12-01T17:42:34.891Z,21.31
2022-12-01T17:44:06.440Z,21.30
2022-12-01T17:45:38.348Z,21.30
2022-12-01T17:47:10.304Z,21.29
2022-12-01T17:48:42.611Z,21.28
2022-12-01T17:50:14.573Z,21.27
2022-12-01T17:51:46.869Z,21.26
2022-12-01T17:53:18.945Z,21.24
2022-12-01T17:54:50.633Z,21.23
2022-12-01T17:56:22.875Z,21.22
2022-12-01T17:57:54.365Z,21.21
2022-12-01T17:59:26.217Z,21.19
2022-12-01T18:00:59.685Z,21.17
2022-12-01T18:02:31.567Z,21.16
2022-12-01T18:04:03.658Z,21.15
2022-12-01T18:05:35.663Z,21.14
2022-12-01T18:07:07.436Z,21.12
2022-12-01T18:08:39.331Z,21.12
2022-12-01T18:10:11.103Z,21.11
2022-12-01T18:11:42.685Z,21.11
2022-12-01T18:13:14.403Z,21.08
2022-12-01T18:14:45.899Z,21.07
2022-12-01T18:16:27.423Z,21.06
2022-12-01T18:17:59.279Z,21.04
2022-12-01T18:19:31.224Z,21.04
2022-12-01T18:21:09.189Z,21.03
2022-12-01T18:22:41.219Z,21.02
2022-12-01T18:24:18.782Z,21.01
2022-12-01T18:25:50.678Z,21.00
2022-12-01T18:27:22.375Z,21.00
2022-12-01T18:28:54.733Z,20.99
2022-12-01T18:30:26.646Z,20.98
